sensor_id;sensor_type;location;lat;lon;timestamp;P1;durP1;ratioP1;P2;durP2;ratioP2
16401;SDS011;8310;44.626;11.176;2023-03-04T00:00:42;24.02;;;18.42;;
16401;SDS011;8310;44.626;11.176;2023-03-04T00:03:12;23.08;;;18.13;;
16401;SDS011;8310;44.626;11.176;2023-03-04T00:05:42;23.70;;;19.58;;
16401;SDS011;8310;44.626;11.176;2023-03-04T00:08:10;24.63;;;19.73;;
16401;SDS011;8310;44.626;11.176;2023-03-04T00:10:38;25.67;;;18.40;;
16401;SDS011;8310;44.626;11.176;2023-03-04T00:13:05;24.55;;;19.70;;
16401;SDS011;8310;44.626;11.176;2023-03-04T00:15:33;25.15;;;19.15;;
16401;SDS011;8310;44.626;11.176;2023-03-04T00:18:01;24.83;;;19.50;;
16401;SDS011;8310;44.626;11.176;2023-03-04T00:20:29;25.63;;;20.27;;
16401;SDS011;8310;44.626;11.176;2023-03-04T00:22:58;22.45;;;20.05;;
16401;SDS011;8310;44.626;11.176;2023-03-04T00:25:26;31.00;;;19.25;;
16401;SDS011;8310;44.626;11.176;2023-03-04T00:30:22;26.25;;;20.90;;
16401;SDS011;8310;44.626;11.176;2023-03-04T00:35:17;25.77;;;22.63;;
16401;SDS011;8310;44.626;11.176;2023-03-04T00:37:45;26.90;;;21.10;;
16401;SDS011;8310;44.626;11.176;2023-03-04T00:40:14;29.45;;;20.85;;
16401;SDS011;8310;44.626;11.176;2023-03-04T00:42:42;25.03;;;20.03;;
16401;SDS011;8310;44.626;11.176;2023-03-04T00:45:10;25.45;;;20.35;;
16401;SDS011;8310;44.626;11.176;2023-03-04T00:47:38;31.70;;;21.50;;
16401;SDS011;8310;44.626;11.176;2023-03-04T00:50:06;26.45;;;21.80;;
16401;SDS011;8310;44.626;11.176;2023-03-04T00:52:34;27.25;;;22.73;;
16401;SDS011;8310;44.626;11.176;2023-03-04T00:55:02;23.98;;;20.35;;
16401;SDS011;8310;44.626;11.176;2023-03-04T00:57:33;27.30;;;21.48;;
16401;SDS011;8310;44.626;11.176;2023-03-04T01:00:02;28.17;;;22.45;;
16401;SDS011;8310;44.626;11.176;2023-03-04T01:02:30;25.60;;;21.30;;
16401;SDS011;8310;44.626;11.176;2023-03-04T01:04:58;26.70;;;20.10;;
16401;SDS011;8310;44.626;11.176;2023-03-04T01:09:54;29.60;;;22.70;;
16401;SDS011;8310;44.626;11.176;2023-03-04T01:12:22;30.02;;;22.38;;
16401;SDS011;8310;44.626;11.176;2023-03-04T01:14:52;30.45;;;21.40;;
16401;SDS011;8310;44.626;11.176;2023-03-04T01:17:21;30.05;;;23.33;;
16401;SDS011;8310;44.626;11.176;2023-03-04T01:19:49;27.07;;;21.47;;
16401;SDS011;8310;44.626;11.176;2023-03-04T01:22:17;26.52;;;22.17;;
16401;SDS011;8310;44.626;11.176;2023-03-04T01:24:45;27.70;;;21.70;;
16401;SDS011;8310;44.626;11.176;2023-03-04T01:27:13;28.42;;;22.23;;
16401;SDS011;8310;44.626;11.176;2023-03-04T01:29:42;28.95;;;23.58;;
16401;SDS011;8310;44.626;11.176;2023-03-04T01:32:12;34.00;;;25.15;;
16401;SDS011;8310;44.626;11.176;2023-03-04T01:34:39;34.00;;;24.30;;
16401;SDS011;8310;44.626;11.176;2023-03-04T01:37:07;29.63;;;23.77;;
16401;SDS011;8310;44.626;11.176;2023-03-04T01:39:35;29.63;;;23.60;;
16401;SDS011;8310;44.626;11.176;2023-03-04T01:42:03;26.98;;;22.20;;
16401;SDS011;8310;44.626;11.176;2023-03-04T01:44:31;31.80;;;24.20;;
16401;SDS011;8310;44.626;11.176;2023-03-04T01:47:00;29.70;;;22.60;;
16401;SDS011;8310;44.626;11.176;2023-03-04T01:54:25;31.75;;;24.70;;
16401;SDS011;8310;44.626;11.176;2023-03-04T01:56:53;30.40;;;24.40;;
16401;SDS011;8310;44.626;11.176;2023-03-04T01:59:23;34.30;;;25.67;;
16401;SDS011;8310;44.626;11.176;2023-03-04T02:01:53;34.00;;;27.23;;
16401;SDS011;8310;44.626;11.176;2023-03-04T02:04:23;33.75;;;26.65;;
16401;SDS011;8310;44.626;11.176;2023-03-04T02:06:55;38.70;;;27.70;;
16401;SDS011;8310;44.626;11.176;2023-03-04T02:11:52;36.25;;;25.58;;
16401;SDS011;8310;44.626;11.176;2023-03-04T02:14:19;34.88;;;25.15;;
16401;SDS011;8310;44.626;11.176;2023-03-04T02:16:48;31.15;;;23.60;;
16401;SDS011;8310;44.626;11.176;2023-03-04T02:19:18;35.30;;;24.70;;
16401;SDS011;8310;44.626;11.176;2023-03-04T02:21:58;31.85;;;23.20;;
16401;SDS011;8310;44.626;11.176;2023-03-04T02:24:27;30.95;;;23.27;;
16401;SDS011;8310;44.626;11.176;2023-03-04T02:27:02;29.95;;;22.63;;
16401;SDS011;8310;44.626;11.176;2023-03-04T02:29:30;29.10;;;22.67;;
16401;SDS011;8310;44.626;11.176;2023-03-04T02:31:58;29.45;;;22.17;;
16401;SDS011;8310;44.626;11.176;2023-03-04T02:34:27;30.02;;;22.15;;
16401;SDS011;8310;44.626;11.176;2023-03-04T02:36:57;30.80;;;22.15;;
16401;SDS011;8310;44.626;11.176;2023-03-04T02:39:27;29.60;;;20.67;;
16401;SDS011;8310;44.626;11.176;2023-03-04T02:41:58;28.63;;;21.00;;
16401;SDS011;8310;44.626;11.176;2023-03-04T02:44:29;24.77;;;19.40;;
16401;SDS011;8310;44.626;11.176;2023-03-04T02:46:59;27.10;;;18.95;;
16401;SDS011;8310;44.626;11.176;2023-03-04T02:49:27;27.67;;;20.10;;
16401;SDS011;8310;44.626;11.176;2023-03-04T02:51:58;27.63;;;20.27;;
16401;SDS011;8310;44.626;11.176;2023-03-04T02:54:28;24.35;;;19.27;;
16401;SDS011;8310;44.626;11.176;2023-03-04T02:56:57;24.30;;;19.10;;
16401;SDS011;8310;44.626;11.176;2023-03-04T02:59:28;23.02;;;18.95;;
16401;SDS011;8310;44.626;11.176;2023-03-04T03:01:57;24.45;;;19.65;;
16401;SDS011;8310;44.626;11.176;2023-03-04T03:04:26;24.88;;;19.00;;
16401;SDS011;8310;44.626;11.176;2023-03-04T03:06:54;24.42;;;18.48;;
16401;SDS011;8310;44.626;11.176;2023-03-04T03:09:22;24.20;;;18.60;;
16401;SDS011;8310;44.626;11.176;2023-03-04T03:11:50;26.38;;;19.42;;
16401;SDS011;8310;44.626;11.176;2023-03-04T03:14:18;23.08;;;17.50;;
16401;SDS011;8310;44.626;11.176;2023-03-04T03:16:47;26.10;;;18.15;;
16401;SDS011;8310;44.626;11.176;2023-03-04T03:19:15;37.45;;;25.05;;
16401;SDS011;8310;44.626;11.176;2023-03-04T03:21:43;22.95;;;16.98;;
16401;SDS011;8310;44.626;11.176;2023-03-04T03:24:11;20.67;;;16.65;;
16401;SDS011;8310;44.626;11.176;2023-03-04T03:26:39;25.20;;;18.05;;
16401;SDS011;8310;44.626;11.176;2023-03-04T03:29:07;24.02;;;17.55;;
16401;SDS011;8310;44.626;11.176;2023-03-04T03:31:35;23.40;;;17.67;;
16401;SDS011;8310;44.626;11.176;2023-03-04T03:34:05;21.45;;;16.38;;
16401;SDS011;8310;44.626;11.176;2023-03-04T03:36:33;22.63;;;16.10;;
16401;SDS011;8310;44.626;11.176;2023-03-04T03:39:00;20.58;;;16.50;;
16401;SDS011;8310;44.626;11.176;2023-03-04T03:41:29;21.60;;;17.13;;
16401;SDS011;8310;44.626;11.176;2023-03-04T03:43:57;22.10;;;17.00;;
16401;SDS011;8310;44.626;11.176;2023-03-04T03:46:24;23.92;;;16.75;;
16401;SDS011;8310;44.626;11.176;2023-03-04T03:48:52;25.58;;;18.48;;
16401;SDS011;8310;44.626;11.176;2023-03-04T03:51:21;22.30;;;18.08;;
16401;SDS011;8310;44.626;11.176;2023-03-04T03:53:49;25.02;;;18.58;;
16401;SDS011;8310;44.626;11.176;2023-03-04T03:56:16;20.38;;;17.33;;
16401;SDS011;8310;44.626;11.176;2023-03-04T03:58:45;24.55;;;17.45;;
16401;SDS011;8310;44.626;11.176;2023-03-04T04:01:13;24.30;;;17.50;;
16401;SDS011;8310;44.626;11.176;2023-03-04T04:03:41;26.38;;;18.17;;
16401;SDS011;8310;44.626;11.176;2023-03-04T04:06:08;22.98;;;16.92;;
16401;SDS011;8310;44.626;11.176;2023-03-04T04:08:37;22.30;;;17.67;;
16401;SDS011;8310;44.626;11.176;2023-03-04T04:11:07;24.17;;;17.38;;
16401;SDS011;8310;44.626;11.176;2023-03-04T04:13:36;25.50;;;18.67;;
16401;SDS011;8310;44.626;11.176;2023-03-04T04:16:04;25.38;;;18.42;;
16401;SDS011;8310;44.626;11.176;2023-03-04T04:18:33;25.02;;;18.42;;
16401;SDS011;8310;44.626;11.176;2023-03-04T04:21:01;24.13;;;17.23;;
16401;SDS011;8310;44.626;11.176;2023-03-04T04:23:29;23.13;;;17.93;;
16401;SDS011;8310;44.626;11.176;2023-03-04T04:25:58;26.05;;;18.50;;
16401;SDS011;8310;44.626;11.176;2023-03-04T04:28:26;23.77;;;17.63;;
16401;SDS011;8310;44.626;11.176;2023-03-04T04:30:54;23.00;;;17.38;;
16401;SDS011;8310;44.626;11.176;2023-03-04T04:33:22;21.67;;;16.98;;
16401;SDS011;8310;44.626;11.176;2023-03-04T04:35:50;21.23;;;16.13;;
16401;SDS011;8310;44.626;11.176;2023-03-04T04:38:19;24.20;;;17.80;;
16401;SDS011;8310;44.626;11.176;2023-03-04T04:40:47;21.88;;;17.70;;
16401;SDS011;8310;44.626;11.176;2023-03-04T04:43:17;26.60;;;17.40;;
16401;SDS011;8310;44.626;11.176;2023-03-04T04:45:45;24.02;;;16.65;;
16401;SDS011;8310;44.626;11.176;2023-03-04T04:48:13;25.15;;;16.63;;
16401;SDS011;8310;44.626;11.176;2023-03-04T04:50:40;22.27;;;16.02;;
16401;SDS011;8310;44.626;11.176;2023-03-04T04:53:12;21.35;;;15.85;;
16401;SDS011;8310;44.626;11.176;2023-03-04T04:55:40;22.60;;;16.27;;
16401;SDS011;8310;44.626;11.176;2023-03-04T04:58:08;23.20;;;18.13;;
16401;SDS011;8310;44.626;11.176;2023-03-04T05:00:37;28.25;;;17.83;;
16401;SDS011;8310;44.626;11.176;2023-03-04T05:03:06;24.17;;;18.08;;
16401;SDS011;8310;44.626;11.176;2023-03-04T05:05:34;24.50;;;16.75;;
16401;SDS011;8310;44.626;11.176;2023-03-04T05:08:02;22.52;;;17.48;;
16401;SDS011;8310;44.626;11.176;2023-03-04T05:10:31;25.83;;;18.05;;
16401;SDS011;8310;44.626;11.176;2023-03-04T05:13:00;23.38;;;16.05;;
16401;SDS011;8310;44.626;11.176;2023-03-04T05:15:28;24.70;;;16.83;;
16401;SDS011;8310;44.626;11.176;2023-03-04T05:17:57;24.13;;;17.63;;
16401;SDS011;8310;44.626;11.176;2023-03-04T05:20:25;23.90;;;17.15;;
16401;SDS011;8310;44.626;11.176;2023-03-04T05:22:52;23.83;;;18.45;;
16401;SDS011;8310;44.626;11.176;2023-03-04T05:25:20;22.75;;;17.05;;
16401;SDS011;8310;44.626;11.176;2023-03-04T05:27:48;24.15;;;17.60;;
16401;SDS011;8310;44.626;11.176;2023-03-04T05:30:16;24.92;;;17.20;;
16401;SDS011;8310;44.626;11.176;2023-03-04T05:32:44;23.92;;;17.42;;
16401;SDS011;8310;44.626;11.176;2023-03-04T05:35:13;24.35;;;17.15;;
16401;SDS011;8310;44.626;11.176;2023-03-04T05:37:41;26.13;;;17.25;;
16401;SDS011;8310;44.626;11.176;2023-03-04T05:40:10;24.20;;;17.35;;
16401;SDS011;8310;44.626;11.176;2023-03-04T05:42:39;23.38;;;16.13;;
16401;SDS011;8310;44.626;11.176;2023-03-04T05:45:07;25.10;;;17.40;;
16401;SDS011;8310;44.626;11.176;2023-03-04T05:47:36;26.05;;;18.55;;
16401;SDS011;8310;44.626;11.176;2023-03-04T05:50:04;24.15;;;18.00;;
16401;SDS011;8310;44.626;11.176;2023-03-04T05:52:34;21.98;;;15.80;;
16401;SDS011;8310;44.626;11.176;2023-03-04T05:55:02;21.83;;;15.18;;
16401;SDS011;8310;44.626;11.176;2023-03-04T05:57:31;23.50;;;15.65;;
16401;SDS011;8310;44.626;11.176;2023-03-04T05:59:59;21.52;;;15.15;;
16401;SDS011;8310;44.626;11.176;2023-03-04T06:02:29;25.25;;;16.08;;
16401;SDS011;8310;44.626;11.176;2023-03-04T06:04:57;19.00;;;14.73;;
16401;SDS011;8310;44.626;11.176;2023-03-04T06:07:24;24.20;;;16.80;;
16401;SDS011;8310;44.626;11.176;2023-03-04T06:09:53;23.33;;;16.52;;
16401;SDS011;8310;44.626;11.176;2023-03-04T06:12:21;20.27;;;15.63;;
16401;SDS011;8310;44.626;11.176;2023-03-04T06:14:49;22.88;;;15.65;;
16401;SDS011;8310;44.626;11.176;2023-03-04T06:17:17;24.20;;;17.15;;
16401;SDS011;8310;44.626;11.176;2023-03-04T06:19:44;22.83;;;14.80;;
16401;SDS011;8310;44.626;11.176;2023-03-04T06:22:13;24.00;;;14.55;;
16401;SDS011;8310;44.626;11.176;2023-03-04T06:24:40;18.48;;;14.45;;
16401;SDS011;8310;44.626;11.176;2023-03-04T06:27:09;21.70;;;14.75;;
16401;SDS011;8310;44.626;11.176;2023-03-04T06:29:37;20.42;;;14.23;;
16401;SDS011;8310;44.626;11.176;2023-03-04T06:32:05;19.10;;;13.90;;
16401;SDS011;8310;44.626;11.176;2023-03-04T06:34:33;21.17;;;13.70;;
16401;SDS011;8310;44.626;11.176;2023-03-04T06:37:02;21.27;;;14.32;;
16401;SDS011;8310;44.626;11.176;2023-03-04T06:39:29;28.00;;;15.05;;
16401;SDS011;8310;44.626;11.176;2023-03-04T06:41:56;21.20;;;13.95;;
16401;SDS011;8310;44.626;11.176;2023-03-04T06:44:26;17.10;;;13.80;;
16401;SDS011;8310;44.626;11.176;2023-03-04T06:46:53;23.45;;;15.65;;
16401;SDS011;8310;44.626;11.176;2023-03-04T06:49:21;21.70;;;14.73;;
16401;SDS011;8310;44.626;11.176;2023-03-04T06:51:48;20.95;;;14.32;;
16401;SDS011;8310;44.626;11.176;2023-03-04T06:54:17;20.00;;;14.73;;
16401;SDS011;8310;44.626;11.176;2023-03-04T06:56:44;20.60;;;14.07;;
16401;SDS011;8310;44.626;11.176;2023-03-04T06:59:12;19.30;;;13.35;;
16401;SDS011;8310;44.626;11.176;2023-03-04T07:01:41;22.85;;;14.15;;
16401;SDS011;8310;44.626;11.176;2023-03-04T07:04:09;18.42;;;14.85;;
16401;SDS011;8310;44.626;11.176;2023-03-04T07:06:39;16.38;;;12.80;;
16401;SDS011;8310;44.626;11.176;2023-03-04T07:09:06;17.85;;;13.40;;
16401;SDS011;8310;44.626;11.176;2023-03-04T07:11:34;18.65;;;13.98;;
16401;SDS011;8310;44.626;11.176;2023-03-04T07:14:02;18.20;;;15.32;;
16401;SDS011;8310;44.626;11.176;2023-03-04T07:16:29;20.20;;;15.68;;
16401;SDS011;8310;44.626;11.176;2023-03-04T07:18:58;18.30;;;13.90;;
16401;SDS011;8310;44.626;11.176;2023-03-04T07:21:26;18.95;;;13.48;;
16401;SDS011;8310;44.626;11.176;2023-03-04T07:23:53;17.48;;;13.40;;
16401;SDS011;8310;44.626;11.176;2023-03-04T07:26:21;18.52;;;13.85;;
16401;SDS011;8310;44.626;11.176;2023-03-04T07:28:49;18.40;;;14.13;;
16401;SDS011;8310;44.626;11.176;2023-03-04T07:31:19;19.02;;;14.65;;
16401;SDS011;8310;44.626;11.176;2023-03-04T07:33:54;19.48;;;14.85;;
16401;SDS011;8310;44.626;11.176;2023-03-04T07:36:25;17.10;;;14.57;;
16401;SDS011;8310;44.626;11.176;2023-03-04T07:38:53;18.83;;;15.27;;
16401;SDS011;8310;44.626;11.176;2023-03-04T07:41:22;21.33;;;16.77;;
16401;SDS011;8310;44.626;11.176;2023-03-04T07:43:51;19.30;;;16.42;;
16401;SDS011;8310;44.626;11.176;2023-03-04T07:46:19;21.73;;;17.17;;
16401;SDS011;8310;44.626;11.176;2023-03-04T07:48:47;21.13;;;17.30;;
16401;SDS011;8310;44.626;11.176;2023-03-04T07:51:16;22.80;;;18.08;;
16401;SDS011;8310;44.626;11.176;2023-03-04T07:53:46;22.95;;;20.45;;
16401;SDS011;8310;44.626;11.176;2023-03-04T07:56:16;30.63;;;23.83;;
16401;SDS011;8310;44.626;11.176;2023-03-04T07:58:44;26.13;;;20.95;;
16401;SDS011;8310;44.626;11.176;2023-03-04T08:01:13;28.38;;;22.90;;
16401;SDS011;8310;44.626;11.176;2023-03-04T08:03:42;32.15;;;24.30;;
16401;SDS011;8310;44.626;11.176;2023-03-04T08:06:11;30.30;;;23.98;;
16401;SDS011;8310;44.626;11.176;2023-03-04T08:08:41;35.30;;;25.13;;
16401;SDS011;8310;44.626;11.176;2023-03-04T08:11:11;35.83;;;25.48;;
16401;SDS011;8310;44.626;11.176;2023-03-04T08:13:45;27.73;;;23.23;;
16401;SDS011;8310;44.626;11.176;2023-03-04T08:16:13;29.88;;;24.45;;
16401;SDS011;8310;44.626;11.176;2023-03-04T08:18:41;29.63;;;24.48;;
16401;SDS011;8310;44.626;11.176;2023-03-04T08:21:10;28.45;;;23.25;;
16401;SDS011;8310;44.626;11.176;2023-03-04T08:23:38;29.23;;;22.77;;
16401;SDS011;8310;44.626;11.176;2023-03-04T08:26:06;30.83;;;24.55;;
16401;SDS011;8310;44.626;11.176;2023-03-04T08:28:37;28.42;;;23.23;;
16401;SDS011;8310;44.626;11.176;2023-03-04T08:31:04;28.67;;;22.45;;
16401;SDS011;8310;44.626;11.176;2023-03-04T08:33:32;31.38;;;23.73;;
16401;SDS011;8310;44.626;11.176;2023-03-04T08:36:00;31.92;;;23.20;;
16401;SDS011;8310;44.626;11.176;2023-03-04T08:38:28;34.83;;;24.88;;
16401;SDS011;8310;44.626;11.176;2023-03-04T08:40:57;30.45;;;24.25;;
16401;SDS011;8310;44.626;11.176;2023-03-04T08:43:24;30.90;;;24.25;;
16401;SDS011;8310;44.626;11.176;2023-03-04T08:45:54;29.33;;;22.17;;
16401;SDS011;8310;44.626;11.176;2023-03-04T08:48:22;31.10;;;22.88;;
16401;SDS011;8310;44.626;11.176;2023-03-04T08:50:50;28.23;;;22.88;;
16401;SDS011;8310;44.626;11.176;2023-03-04T08:53:18;30.48;;;22.52;;
16401;SDS011;8310;44.626;11.176;2023-03-04T08:55:46;30.80;;;23.48;;
16401;SDS011;8310;44.626;11.176;2023-03-04T08:58:14;29.52;;;22.52;;
16401;SDS011;8310;44.626;11.176;2023-03-04T09:00:44;26.92;;;22.52;;
16401;SDS011;8310;44.626;11.176;2023-03-04T09:03:14;29.17;;;21.88;;
16401;SDS011;8310;44.626;11.176;2023-03-04T09:05:44;29.65;;;22.85;;
16401;SDS011;8310;44.626;11.176;2023-03-04T09:08:13;27.98;;;22.02;;
16401;SDS011;8310;44.626;11.176;2023-03-04T09:10:41;26.23;;;22.20;;
16401;SDS011;8310;44.626;11.176;2023-03-04T09:13:09;29.48;;;23.33;;
16401;SDS011;8310;44.626;11.176;2023-03-04T09:15:42;29.45;;;23.38;;
16401;SDS011;8310;44.626;11.176;2023-03-04T09:18:11;27.02;;;22.17;;
16401;SDS011;8310;44.626;11.176;2023-03-04T09:20:40;29.58;;;20.98;;
16401;SDS011;8310;44.626;11.176;2023-03-04T09:23:08;28.40;;;20.73;;
16401;SDS011;8310;44.626;11.176;2023-03-04T09:25:36;29.23;;;20.70;;
16401;SDS011;8310;44.626;11.176;2023-03-04T09:28:06;24.58;;;21.35;;
16401;SDS011;8310;44.626;11.176;2023-03-04T09:30:34;26.67;;;20.85;;
16401;SDS011;8310;44.626;11.176;2023-03-04T09:33:02;23.05;;;19.30;;
16401;SDS011;8310;44.626;11.176;2023-03-04T09:35:29;28.15;;;19.58;;
16401;SDS011;8310;44.626;11.176;2023-03-04T09:37:58;25.25;;;20.33;;
16401;SDS011;8310;44.626;11.176;2023-03-04T09:40:27;24.38;;;19.77;;
16401;SDS011;8310;44.626;11.176;2023-03-04T09:42:58;23.80;;;18.33;;
16401;SDS011;8310;44.626;11.176;2023-03-04T09:45:31;24.42;;;19.48;;
16401;SDS011;8310;44.626;11.176;2023-03-04T09:48:02;29.13;;;19.80;;
16401;SDS011;8310;44.626;11.176;2023-03-04T09:50:33;24.98;;;18.83;;
16401;SDS011;8310;44.626;11.176;2023-03-04T09:53:12;23.92;;;18.33;;
16401;SDS011;8310;44.626;11.176;2023-03-04T09:55:48;19.55;;;16.65;;
16401;SDS011;8310;44.626;11.176;2023-03-04T09:58:20;21.58;;;16.45;;
16401;SDS011;8310;44.626;11.176;2023-03-04T10:00:57;17.33;;;15.40;;
16401;SDS011;8310;44.626;11.176;2023-03-04T10:03:31;21.85;;;17.67;;
16401;SDS011;8310;44.626;11.176;2023-03-04T10:06:08;20.38;;;14.20;;
16401;SDS011;8310;44.626;11.176;2023-03-04T10:08:42;17.10;;;14.05;;
16401;SDS011;8310;44.626;11.176;2023-03-04T10:11:17;18.00;;;13.60;;
16401;SDS011;8310;44.626;11.176;2023-03-04T10:13:52;18.85;;;15.07;;
16401;SDS011;8310;44.626;11.176;2023-03-04T10:16:28;20.77;;;15.85;;
16401;SDS011;8310;44.626;11.176;2023-03-04T10:19:02;15.25;;;11.63;;
16401;SDS011;8310;44.626;11.176;2023-03-04T10:21:49;15.98;;;11.60;;
16401;SDS011;8310;44.626;11.176;2023-03-04T10:24:20;13.80;;;12.15;;
16401;SDS011;8310;44.626;11.176;2023-03-04T10:26:50;13.23;;;11.82;;
16401;SDS011;8310;44.626;11.176;2023-03-04T10:29:21;17.83;;;13.60;;
16401;SDS011;8310;44.626;11.176;2023-03-04T10:31:50;14.20;;;12.75;;
16401;SDS011;8310;44.626;11.176;2023-03-04T10:34:19;16.15;;;13.63;;
16401;SDS011;8310;44.626;11.176;2023-03-04T10:36:54;16.58;;;12.57;;
16401;SDS011;8310;44.626;11.176;2023-03-04T10:39:26;15.80;;;13.50;;
16401;SDS011;8310;44.626;11.176;2023-03-04T10:41:58;17.13;;;13.52;;
16401;SDS011;8310;44.626;11.176;2023-03-04T10:44:27;16.25;;;13.80;;
16401;SDS011;8310;44.626;11.176;2023-03-04T10:46:56;17.13;;;12.90;;
16401;SDS011;8310;44.626;11.176;2023-03-04T10:49:24;15.48;;;13.70;;
16401;SDS011;8310;44.626;11.176;2023-03-04T10:51:54;18.55;;;14.57;;
16401;SDS011;8310;44.626;11.176;2023-03-04T10:54:29;17.20;;;13.32;;
16401;SDS011;8310;44.626;11.176;2023-03-04T10:56:59;18.80;;;14.15;;
16401;SDS011;8310;44.626;11.176;2023-03-04T10:59:30;18.95;;;13.48;;
16401;SDS011;8310;44.626;11.176;2023-03-04T11:02:13;16.70;;;14.30;;
16401;SDS011;8310;44.626;11.176;2023-03-04T11:24:53;16.80;;;15.10;;
16401;SDS011;8310;44.626;11.176;2023-03-04T11:29:55;19.77;;;14.02;;
16401;SDS011;8310;44.626;11.176;2023-03-04T11:32:26;17.92;;;13.82;;
16401;SDS011;8310;44.626;11.176;2023-03-04T11:34:57;15.70;;;13.50;;
16401;SDS011;8310;44.626;11.176;2023-03-04T12:05:42;19.20;;;14.40;;
16401;SDS011;8310;44.626;11.176;2023-03-04T12:08:20;17.90;;;14.02;;
16401;SDS011;8310;44.626;11.176;2023-03-04T12:11:02;16.48;;;13.85;;
16401;SDS011;8310;44.626;11.176;2023-03-04T12:13:45;16.92;;;15.02;;
16401;SDS011;8310;44.626;11.176;2023-03-04T12:16:38;16.45;;;14.65;;
16401;SDS011;8310;44.626;11.176;2023-03-04T12:19:25;17.08;;;14.35;;
16401;SDS011;8310;44.626;11.176;2023-03-04T12:22:02;16.15;;;14.45;;
16401;SDS011;8310;44.626;11.176;2023-03-04T12:24:41;16.70;;;13.52;;
16401;SDS011;8310;44.626;11.176;2023-03-04T12:27:23;18.15;;;15.10;;
16401;SDS011;8310;44.626;11.176;2023-03-04T12:29:58;19.88;;;15.82;;
16401;SDS011;8310;44.626;11.176;2023-03-04T12:32:51;18.23;;;15.82;;
16401;SDS011;8310;44.626;11.176;2023-03-04T12:35:35;19.00;;;15.43;;
16401;SDS011;8310;44.626;11.176;2023-03-04T12:38:11;24.65;;;15.63;;
16401;SDS011;8310;44.626;11.176;2023-03-04T12:40:53;16.00;;;13.85;;
16401;SDS011;8310;44.626;11.176;2023-03-04T12:46:24;15.98;;;14.38;;
16401;SDS011;8310;44.626;11.176;2023-03-04T12:49:05;16.17;;;14.13;;
16401;SDS011;8310;44.626;11.176;2023-03-04T12:51:49;17.23;;;14.50;;
16401;SDS011;8310;44.626;11.176;2023-03-04T12:54:27;19.45;;;15.82;;
16401;SDS011;8310;44.626;11.176;2023-03-04T12:56:59;17.33;;;14.85;;
16401;SDS011;8310;44.626;11.176;2023-03-04T12:59:33;18.40;;;16.02;;
16401;SDS011;8310;44.626;11.176;2023-03-04T13:02:07;17.48;;;14.00;;
16401;SDS011;8310;44.626;11.176;2023-03-04T13:04:57;18.73;;;15.57;;
16401;SDS011;8310;44.626;11.176;2023-03-04T13:07:32;17.92;;;14.68;;
16401;SDS011;8310;44.626;11.176;2023-03-04T13:10:08;17.73;;;15.43;;
16401;SDS011;8310;44.626;11.176;2023-03-04T13:12:45;17.98;;;15.90;;
16401;SDS011;8310;44.626;11.176;2023-03-04T13:15:26;19.27;;;15.80;;
16401;SDS011;8310;44.626;11.176;2023-03-04T13:17:58;17.15;;;15.07;;
16401;SDS011;8310;44.626;11.176;2023-03-04T13:20:33;19.52;;;15.57;;
16401;SDS011;8310;44.626;11.176;2023-03-04T13:32:03;20.33;;;15.68;;
16401;SDS011;8310;44.626;11.176;2023-03-04T13:34:45;16.50;;;14.48;;
16401;SDS011;8310;44.626;11.176;2023-03-04T13:37:28;17.92;;;15.23;;
16401;SDS011;8310;44.626;11.176;2023-03-04T13:43:24;17.02;;;13.63;;
16401;SDS011;8310;44.626;11.176;2023-03-04T13:49:06;19.63;;;15.63;;
16401;SDS011;8310;44.626;11.176;2023-03-04T13:51:43;19.95;;;16.33;;
16401;SDS011;8310;44.626;11.176;2023-03-04T13:54:14;18.50;;;15.18;;
16401;SDS011;8310;44.626;11.176;2023-03-04T13:56:46;20.77;;;15.80;;
16401;SDS011;8310;44.626;11.176;2023-03-04T13:59:22;19.50;;;14.23;;
16401;SDS011;8310;44.626;11.176;2023-03-04T14:02:00;19.13;;;14.48;;
16401;SDS011;8310;44.626;11.176;2023-03-04T14:04:32;21.35;;;15.75;;
16401;SDS011;8310;44.626;11.176;2023-03-04T14:07:02;17.10;;;15.35;;
16401;SDS011;8310;44.626;11.176;2023-03-04T14:09:51;17.00;;;15.20;;
16401;SDS011;8310;44.626;11.176;2023-03-04T14:12:21;17.83;;;14.82;;
16401;SDS011;8310;44.626;11.176;2023-03-04T14:14:50;19.65;;;15.55;;
16401;SDS011;8310;44.626;11.176;2023-03-04T14:17:19;18.73;;;15.80;;
16401;SDS011;8310;44.626;11.176;2023-03-04T14:19:51;20.30;;;14.50;;
16401;SDS011;8310;44.626;11.176;2023-03-04T14:22:21;16.35;;;14.55;;
16401;SDS011;8310;44.626;11.176;2023-03-04T14:24:56;17.80;;;13.82;;
16401;SDS011;8310;44.626;11.176;2023-03-04T14:27:25;17.98;;;14.63;;
16401;SDS011;8310;44.626;11.176;2023-03-04T14:29:54;17.23;;;15.48;;
16401;SDS011;8310;44.626;11.176;2023-03-04T14:32:22;16.88;;;15.02;;
16401;SDS011;8310;44.626;11.176;2023-03-04T14:34:53;15.02;;;13.35;;
16401;SDS011;8310;44.626;11.176;2023-03-04T14:37:23;20.10;;;14.80;;
16401;SDS011;8310;44.626;11.176;2023-03-04T14:39:53;16.58;;;14.90;;
16401;SDS011;8310;44.626;11.176;2023-03-04T14:42:24;16.48;;;14.68;;
16401;SDS011;8310;44.626;11.176;2023-03-04T14:45:03;15.82;;;14.23;;
16401;SDS011;8310;44.626;11.176;2023-03-04T14:47:35;20.70;;;16.25;;
16401;SDS011;8310;44.626;11.176;2023-03-04T14:50:09;17.83;;;14.52;;
16401;SDS011;8310;44.626;11.176;2023-03-04T14:52:41;17.08;;;15.02;;
16401;SDS011;8310;44.626;11.176;2023-03-04T14:55:18;17.20;;;14.13;;
16401;SDS011;8310;44.626;11.176;2023-03-04T14:57:48;15.98;;;14.27;;
16401;SDS011;8310;44.626;11.176;2023-03-04T15:00:24;18.35;;;14.15;;
16401;SDS011;8310;44.626;11.176;2023-03-04T15:02:54;16.60;;;14.88;;
16401;SDS011;8310;44.626;11.176;2023-03-04T15:05:26;15.77;;;14.07;;
16401;SDS011;8310;44.626;11.176;2023-03-04T15:07:55;16.48;;;14.73;;
16401;SDS011;8310;44.626;11.176;2023-03-04T15:10:26;26.08;;;15.25;;
16401;SDS011;8310;44.626;11.176;2023-03-04T15:12:56;17.05;;;15.27;;
16401;SDS011;8310;44.626;11.176;2023-03-04T15:15:39;15.80;;;14.13;;
16401;SDS011;8310;44.626;11.176;2023-03-04T15:18:16;17.25;;;14.05;;
16401;SDS011;8310;44.626;11.176;2023-03-04T15:20:53;17.27;;;14.38;;
16401;SDS011;8310;44.626;11.176;2023-03-04T15:23:23;18.20;;;14.85;;
16401;SDS011;8310;44.626;11.176;2023-03-04T15:25:51;35.60;;;15.95;;
16401;SDS011;8310;44.626;11.176;2023-03-04T15:28:20;17.33;;;15.02;;
16401;SDS011;8310;44.626;11.176;2023-03-04T15:30:49;18.50;;;14.63;;
16401;SDS011;8310;44.626;11.176;2023-03-04T15:33:17;15.18;;;13.57;;
16401;SDS011;8310;44.626;11.176;2023-03-04T15:35:47;15.00;;;13.40;;
16401;SDS011;8310;44.626;11.176;2023-03-04T15:38:19;17.27;;;13.68;;
16401;SDS011;8310;44.626;11.176;2023-03-04T15:40:47;14.60;;;13.10;;
16401;SDS011;8310;44.626;11.176;2023-03-04T15:43:16;16.33;;;14.25;;
16401;SDS011;8310;44.626;11.176;2023-03-04T15:45:44;16.55;;;14.05;;
16401;SDS011;8310;44.626;11.176;2023-03-04T15:48:14;16.40;;;13.93;;
16401;SDS011;8310;44.626;11.176;2023-03-04T15:50:44;15.60;;;13.55;;
16401;SDS011;8310;44.626;11.176;2023-03-04T15:53:16;16.13;;;14.35;;
16401;SDS011;8310;44.626;11.176;2023-03-04T15:55:49;15.02;;;13.13;;
16401;SDS011;8310;44.626;11.176;2023-03-04T15:58:18;14.10;;;12.73;;
16401;SDS011;8310;44.626;11.176;2023-03-04T16:00:46;14.82;;;13.32;;
16401;SDS011;8310;44.626;11.176;2023-03-04T16:03:15;14.50;;;12.95;;